createdAt,value
2023-05-20T00:02:15.962Z,3.50
2023-05-20T00:04:44.153Z,2.60
2023-05-20T00:07:11.872Z,2.80
2023-05-20T00:09:39.856Z,3.30
2023-05-20T00:12:07.617Z,3.10
2023-05-20T00:14:35.680Z,2.90
2023-05-20T00:17:02.983Z,3.60
2023-05-20T00:19:30.652Z,3.40
2023-05-20T00:21:58.176Z,3.80
2023-05-20T00:24:26.753Z,2.50
2023-05-20T00:26:53.810Z,2.80
2023-05-20T00:29:21.752Z,3.20
2023-05-20T00:31:49.246Z,3.00
2023-05-20T00:34:16.564Z,3.50
2023-05-20T00:36:45.656Z,3.80
2023-05-20T00:39:13.115Z,3.50
2023-05-20T00:41:40.469Z,3.40
2023-05-20T00:44:08.332Z,3.00
2023-05-20T00:46:35.758Z,3.00
2023-05-20T00:49:03.699Z,3.50
2023-05-20T00:51:31.425Z,3.20
2023-05-20T00:53:58.982Z,3.60
2023-05-20T00:56:26.414Z,3.70
2023-05-20T00:58:54.003Z,3.70
2023-05-20T01:01:21.510Z,2.20
2023-05-20T01:03:49.375Z,2.60
2023-05-20T01:06:17.094Z,3.30
2023-05-20T01:08:45.773Z,2.90
2023-05-20T01:11:38.325Z,3.50
2023-05-20T01:14:08.226Z,3.30
2023-05-20T01:16:36.669Z,3.70
2023-05-20T01:19:14.446Z,3.50
2023-05-20T01:21:42.992Z,2.20
2023-05-20T01:24:11.064Z,2.50
2023-05-20T01:26:38.428Z,3.40
2023-05-20T01:29:05.981Z,2.90
2023-05-20T01:31:38.662Z,2.80
2023-05-20T01:34:06.837Z,3.30
2023-05-20T01:36:34.495Z,3.40
2023-05-20T01:39:03.286Z,3.20
2023-05-20T01:41:33.935Z,2.00
2023-05-20T01:44:01.778Z,2.70
2023-05-20T01:46:33.217Z,3.00
2023-05-20T01:51:29.384Z,3.40
2023-05-20T01:53:56.532Z,2.90
2023-05-20T01:56:23.898Z,2.90
2023-05-20T01:58:52.303Z,3.40
2023-05-20T02:01:19.768Z,2.20
2023-05-20T02:03:46.925Z,2.40
2023-05-20T02:06:14.164Z,2.80
2023-05-20T02:08:42.189Z,2.60
2023-05-20T02:11:09.746Z,2.70
2023-05-20T02:13:37.613Z,2.50
2023-05-20T02:16:05.742Z,3.00
2023-05-20T02:18:35.006Z,2.90
2023-05-20T02:21:05.988Z,1.90
2023-05-20T02:23:34.113Z,2.40
2023-05-20T02:26:01.229Z,3.00
2023-05-20T02:28:29.064Z,2.80
2023-05-20T02:30:56.517Z,3.10
2023-05-20T02:33:23.626Z,2.60
2023-05-20T02:35:50.775Z,2.80
2023-05-20T02:38:18.026Z,2.60
2023-05-20T02:40:45.388Z,2.80
2023-05-20T02:43:12.639Z,2.60
2023-05-20T02:45:40.929Z,2.00
2023-05-20T02:48:08.273Z,2.20
2023-05-20T02:50:39.849Z,2.30
2023-05-20T02:53:07.302Z,2.60
2023-05-20T02:55:36.484Z,3.00
2023-05-20T02:58:03.972Z,2.90
2023-05-20T03:00:35.173Z,2.50
2023-05-20T03:03:02.270Z,2.80
2023-05-20T03:05:29.784Z,2.70
2023-05-20T03:07:57.037Z,2.60
2023-05-20T03:10:24.183Z,2.60
2023-05-20T03:12:51.854Z,3.00
2023-05-20T03:15:19.009Z,3.10
2023-05-20T03:17:46.132Z,2.70
2023-05-20T03:20:15.085Z,2.90
2023-05-20T03:22:42.287Z,3.10
2023-05-20T03:25:09.760Z,2.80
2023-05-20T03:27:38.021Z,2.80
2023-05-20T03:30:06.820Z,3.20
2023-05-20T03:32:34.526Z,3.00
2023-05-20T03:35:03.063Z,3.00
2023-05-20T03:37:30.918Z,2.90
2023-05-20T03:39:58.076Z,3.30
2023-05-20T03:42:25.626Z,2.90
2023-05-20T03:44:52.983Z,3.40
2023-05-20T03:47:20.024Z,3.00
2023-05-20T03:49:47.326Z,3.40
2023-05-20T03:52:14.845Z,3.00
2023-05-20T03:54:42.098Z,3.50
2023-05-20T03:57:10.495Z,2.90
2023-05-20T03:59:37.826Z,3.30
2023-05-20T04:02:05.838Z,2.70
2023-05-20T04:04:33.049Z,3.10
2023-05-20T04:07:00.632Z,3.20
2023-05-20T04:09:27.973Z,2.90
2023-05-20T04:11:55.526Z,3.20
2023-05-20T04:14:22.883Z,3.20
2023-05-20T04:16:51.086Z,3.00
2023-05-20T04:19:19.249Z,3.00
2023-05-20T04:21:46.623Z,3.30
2023-05-20T04:24:14.249Z,3.20
2023-05-20T04:26:42.319Z,3.40
2023-05-20T04:29:09.570Z,2.90
2023-05-20T04:31:38.086Z,2.70
2023-05-20T04:34:05.411Z,3.10
2023-05-20T04:36:34.295Z,3.20
2023-05-20T04:39:03.181Z,3.00
2023-05-20T04:41:31.098Z,2.90
2023-05-20T04:44:01.380Z,3.20
2023-05-20T04:46:29.487Z,2.60
2023-05-20T04:48:58.135Z,2.60
2023-05-20T04:51:25.383Z,2.40
2023-05-20T04:53:52.636Z,2.90
2023-05-20T04:56:20.353Z,2.40
2023-05-20T04:58:48.804Z,3.00
2023-05-20T05:01:15.979Z,2.40
2023-05-20T05:03:43.082Z,2.50
2023-05-20T05:06:10.266Z,2.80
2023-05-20T05:08:39.127Z,2.50
2023-05-20T05:11:06.625Z,3.20
2023-05-20T05:13:34.108Z,2.40
2023-05-20T05:16:02.429Z,2.60
2023-05-20T05:18:30.694Z,2.60
2023-05-20T05:21:07.876Z,2.60
2023-05-20T05:23:36.464Z,2.60
2023-05-20T05:26:03.817Z,2.60
2023-05-20T05:28:31.887Z,2.50
2023-05-20T05:30:59.050Z,2.20
2023-05-20T05:33:26.839Z,2.50
2023-05-20T05:35:58.674Z,2.60
2023-05-20T05:38:26.015Z,2.60
2023-05-20T05:40:53.343Z,2.20
2023-05-20T05:43:21.384Z,2.70
2023-05-20T05:45:49.009Z,2.60
2023-05-20T05:48:16.294Z,2.50
2023-05-20T05:50:45.652Z,2.50
2023-05-20T05:53:13.767Z,2.70
2023-05-20T05:55:42.106Z,2.00
2023-05-20T05:58:09.252Z,2.30
2023-05-20T06:00:37.598Z,2.40
2023-05-20T06:03:05.307Z,2.50
2023-05-20T06:05:33.947Z,2.40
2023-05-20T06:08:01.590Z,2.40
2023-05-20T06:10:29.464Z,2.40
2023-05-20T06:12:57.079Z,3.20
2023-05-20T06:15:25.325Z,2.60
2023-05-20T06:17:53.184Z,2.30
2023-05-20T06:20:20.876Z,2.30
2023-05-20T06:22:48.383Z,2.50
2023-05-20T06:25:16.170Z,2.40
2023-05-20T06:27:43.552Z,2.30
2023-05-20T06:30:13.468Z,2.40
2023-05-20T06:32:42.537Z,2.40
2023-05-20T06:35:09.892Z,2.20
2023-05-20T06:37:37.298Z,2.40
2023-05-20T06:40:05.961Z,2.70
2023-05-20T06:42:33.215Z,2.60
2023-05-20T06:45:05.274Z,2.50
2023-05-20T06:47:44.988Z,2.70
2023-05-20T06:50:12.460Z,2.60
2023-05-20T06:52:40.208Z,2.50
2023-05-20T06:55:09.598Z,2.40
2023-05-20T06:57:36.976Z,2.30
2023-05-20T07:00:05.415Z,2.30
2023-05-20T07:02:35.912Z,2.10
2023-05-20T07:05:03.170Z,2.00
2023-05-20T07:07:30.715Z,2.30
2023-05-20T07:09:59.318Z,2.30
2023-05-20T07:12:26.377Z,2.60
2023-05-20T07:14:53.266Z,2.20
2023-05-20T07:17:21.960Z,2.30
2023-05-20T07:19:48.880Z,2.50
2023-05-20T07:22:16.405Z,2.30
2023-05-20T07:25:07.027Z,2.30
2023-05-20T07:27:36.120Z,2.40
2023-05-20T07:30:03.726Z,1.90
2023-05-20T07:32:32.408Z,2.30
2023-05-20T07:35:00.974Z,2.00
2023-05-20T07:37:27.985Z,2.10
2023-05-20T07:39:56.123Z,2.20
2023-05-20T07:42:23.198Z,1.90
2023-05-20T07:44:54.286Z,2.00
2023-05-20T07:47:22.287Z,2.00
2023-05-20T07:49:49.637Z,1.90
2023-05-20T07:52:17.406Z,1.90
2023-05-20T07:54:45.383Z,2.40
2023-05-20T07:57:12.840Z,1.70
2023-05-20T07:59:41.110Z,2.80
2023-05-20T08:02:09.096Z,1.90
2023-05-20T08:04:36.668Z,2.30
2023-05-20T08:07:04.310Z,2.60
2023-05-20T08:09:40.766Z,1.60
2023-05-20T08:12:08.514Z,1.70
2023-05-20T08:14:35.740Z,1.90
2023-05-20T08:17:04.397Z,1.90
2023-05-20T08:19:31.811Z,1.40
2023-05-20T08:21:59.014Z,1.80
2023-05-20T08:24:27.460Z,1.90
2023-05-20T08:26:55.556Z,1.50
2023-05-20T08:29:23.980Z,1.70
2023-05-20T08:31:52.256Z,1.90
2023-05-20T08:34:19.507Z,1.50
2023-05-20T08:36:46.587Z,1.50
2023-05-20T08:39:14.859Z,1.60
2023-05-20T08:41:42.016Z,1.60
2023-05-20T08:44:12.953Z,2.40
2023-05-20T08:46:41.140Z,1.60
2023-05-20T08:49:08.479Z,1.80
